Time;durP1;ratioP1;P1;durP2;ratioP2;P2;SDS_P1;SDS_P2;PMS_P1;PMS_P2;Temp;Humidity;BMP_temperature;BMP_pressure;BME280_temperature;BME280_humidity;BME280_pressure;Samples;Min_cycle;Max_cycle;Signal;HPM_P1;HPM_P2
2023/05/21 00:00:12;;;;;;;22.55;11.73;;;14.90;99.90;;;;;;5109529;28;20024;-51
2023/05/21 00:02:38;;;;;;;24.15;12.48;;;14.90;99.90;;;;;;5109411;28;20107;-55
2023/05/21 00:05:04;;;;;;;21.83;11.35;;;14.80;99.90;;;;;;5107676;27;20059;-56
2023/05/21 00:07:33;;;;;;;21.25;12.00;;;14.80;99.90;;;;;;5111221;28;20063;-54
2023/05/21 00:09:59;;;;;;;24.90;11.45;;;14.80;99.90;;;;;;5102307;28;20073;-56
2023/05/21 00:12:24;;;;;;;27.63;11.48;;;14.80;99.90;;;;;;5106426;28;20028;-55
2023/05/21 00:14:50;;;;;;;24.25;12.30;;;14.70;99.90;;;;;;5105755;27;20047;-54
2023/05/21 00:17:16;;;;;;;21.92;11.23;;;14.70;99.90;;;;;;5106837;28;20055;-56
2023/05/21 00:19:42;;;;;;;25.75;13.35;;;14.70;99.90;;;;;;5104127;28;20012;-55
2023/05/21 00:22:08;;;;;;;26.02;12.77;;;14.70;99.90;;;;;;5106323;28;20024;-54
2023/05/21 00:24:33;;;;;;;22.90;12.40;;;14.60;99.90;;;;;;5101906;28;20024;-54
2023/05/21 00:26:59;;;;;;;22.80;11.85;;;14.60;99.90;;;;;;5109219;28;20084;-53
2023/05/21 00:29:26;;;;;;;24.48;13.05;;;14.60;99.90;;;;;;5105818;28;20027;-53
2023/05/21 00:31:52;;;;;;;23.83;12.27;;;14.60;99.90;;;;;;5108244;28;20137;-57
2023/05/21 00:34:18;;;;;;;24.98;13.32;;;14.60;99.90;;;;;;5108873;28;20024;-57
2023/05/21 00:36:44;;;;;;;23.73;12.63;;;14.60;99.90;;;;;;5104260;28;20405;-57
2023/05/21 00:39:13;;;;;;;27.77;13.15;;;14.60;99.90;;;;;;5103210;28;20036;-54
2023/05/21 00:41:39;;;;;;;22.20;13.18;;;14.60;99.90;;;;;;5105021;28;20027;-54
2023/05/21 00:44:05;;;;;;;30.10;14.90;;;14.60;99.90;;;;;;5105147;28;20023;-55
2023/05/21 00:46:31;;;;;;;27.55;14.30;;;14.60;99.90;;;;;;5103830;28;20104;-56
2023/05/21 00:48:57;;;;;;;26.13;13.85;;;14.60;99.90;;;;;;5101386;28;20054;-56
2023/05/21 00:51:24;;;;;;;25.98;13.23;;;14.60;99.90;;;;;;5109060;28;20026;-56
2023/05/21 00:53:51;;;;;;;26.70;14.40;;;14.50;99.90;;;;;;5105794;28;20302;-56
2023/05/21 00:56:20;;;;;;;30.17;14.90;;;14.50;99.90;;;;;;5102718;28;20016;-55
2023/05/21 00:58:46;;;;;;;25.17;14.00;;;14.50;99.90;;;;;;5108821;28;20020;-56
2023/05/21 01:01:12;;;;;;;24.48;13.90;;;14.50;99.90;;;;;;5105920;28;20485;-56
2023/05/21 01:03:39;;;;;;;24.67;12.45;;;14.50;99.90;;;;;;5107895;28;20118;-56
2023/05/21 01:06:06;;;;;;;24.65;13.23;;;14.50;99.90;;;;;;5107006;28;20032;-51
2023/05/21 01:08:33;;;;;;;27.75;13.43;;;14.40;99.90;;;;;;5105540;28;20028;-53
2023/05/21 01:11:01;;;;;;;24.83;13.57;;;14.40;99.90;;;;;;5105394;28;20078;-54
2023/05/21 01:13:27;;;;;;;25.55;13.05;;;14.40;99.90;;;;;;5109907;28;20107;-57
2023/05/21 01:15:53;;;;;;;29.30;14.05;;;14.40;99.90;;;;;;5108874;28;20043;-53
2023/05/21 01:18:20;;;;;;;25.02;13.48;;;14.40;99.90;;;;;;5109700;28;20051;-57
2023/05/21 01:20:49;;;;;;;24.42;13.23;;;14.40;99.90;;;;;;5100558;28;20440;-55
2023/05/21 01:23:16;;;;;;;23.45;13.15;;;14.40;99.90;;;;;;5109525;28;20020;-57
2023/05/21 01:25:41;;;;;;;25.17;13.55;;;14.40;99.90;;;;;;5101591;28;20035;-54
2023/05/21 01:28:07;;;;;;;21.63;13.55;;;14.40;99.90;;;;;;5107835;28;20101;-55
2023/05/21 01:30:33;;;;;;;27.50;13.25;;;14.30;99.90;;;;;;5106246;28;20377;-51
2023/05/21 01:33:03;;;;;;;26.52;13.45;;;14.30;99.90;;;;;;5103933;28;20104;-56
2023/05/21 01:35:45;;;;;;;28.33;14.50;;;14.30;99.90;;;;;;5107235;28;20114;-56
2023/05/21 01:38:24;;;;;;;22.75;13.05;;;14.30;99.90;;;;;;5108288;28;20046;-56
2023/05/21 01:41:02;;;;;;;22.10;13.02;;;14.20;99.90;;;;;;5103865;28;20032;-56
2023/05/21 01:43:32;;;;;;;26.10;12.73;;;14.20;99.90;;;;;;5105649;28;20035;-55
2023/05/21 01:45:59;;;;;;;22.73;12.68;;;14.20;99.90;;;;;;5105827;28;20110;-53
2023/05/21 01:48:27;;;;;;;25.67;13.00;;;14.20;99.90;;;;;;5104302;28;20024;-58
2023/05/21 01:50:54;;;;;;;24.52;13.30;;;14.10;99.90;;;;;;5106474;28;20467;-53
2023/05/21 01:53:21;;;;;;;23.95;13.63;;;14.10;99.90;;;;;;5109420;28;20018;-54
2023/05/21 01:55:47;;;;;;;25.77;12.65;;;14.10;99.90;;;;;;5106892;28;20027;-55
2023/05/21 01:58:14;;;;;;;25.38;12.75;;;14.10;99.90;;;;;;5110135;28;20028;-58
2023/05/21 02:00:40;;;;;;;23.45;13.27;;;14.10;99.90;;;;;;5104854;27;20032;-55
2023/05/21 02:03:07;;;;;;;24.77;13.18;;;14.10;99.90;;;;;;5105604;28;20040;-54
2023/05/21 02:05:33;;;;;;;27.13;12.63;;;14.00;99.90;;;;;;5105063;28;20489;-53
2023/05/21 02:07:59;;;;;;;29.65;12.95;;;14.00;99.90;;;;;;5107646;28;20438;-52
2023/05/21 02:10:25;;;;;;;26.10;13.65;;;14.00;99.90;;;;;;5108455;28;20028;-51
2023/05/21 02:12:51;;;;;;;18.65;11.57;;;14.00;99.90;;;;;;5112455;28;20019;-54
2023/05/21 02:15:17;;;;;;;24.17;12.25;;;14.00;99.90;;;;;;5112700;28;20016;-56
2023/05/21 02:17:44;;;;;;;23.80;12.43;;;14.00;99.90;;;;;;5107848;28;20077;-54
2023/05/21 02:20:10;;;;;;;22.92;12.57;;;14.00;99.90;;;;;;5111120;28;20046;-54
2023/05/21 02:22:46;;;;;;;21.58;12.32;;;14.00;99.90;;;;;;5108034;28;20024;-52
2023/05/21 02:25:14;;;;;;;21.20;11.05;;;14.00;99.90;;;;;;5109904;28;20039;-55
2023/05/21 02:27:41;;;;;;;19.92;11.07;;;14.00;99.90;;;;;;5109175;28;20477;-53
2023/05/21 02:30:11;;;;;;;19.85;11.10;;;14.00;99.90;;;;;;5113203;28;20397;-54
2023/05/21 02:32:38;;;;;;;19.63;11.82;;;14.00;99.90;;;;;;5109089;28;20145;-54
2023/05/21 02:35:04;;;;;;;20.23;11.27;;;14.00;99.90;;;;;;5109174;28;20020;-54
2023/05/21 02:37:32;;;;;;;19.13;11.50;;;13.90;99.90;;;;;;5108560;28;20062;-58
2023/05/21 02:39:59;;;;;;;21.20;11.68;;;13.90;99.90;;;;;;5107739;28;20130;-56
2023/05/21 02:42:25;;;;;;;21.40;12.00;;;13.90;99.90;;;;;;5102394;28;20114;-58
2023/05/21 02:44:51;;;;;;;18.30;10.43;;;13.90;99.90;;;;;;5110664;28;20110;-55
2023/05/21 02:47:21;;;;;;;19.65;11.50;;;13.90;99.90;;;;;;5107079;28;20047;-55
2023/05/21 02:49:49;;;;;;;22.50;11.05;;;13.90;99.90;;;;;;5108455;28;20052;-53
2023/05/21 02:52:17;;;;;;;19.17;10.77;;;13.90;99.90;;;;;;5110994;28;20066;-57
2023/05/21 02:54:43;;;;;;;18.13;10.63;;;13.90;99.90;;;;;;5109547;28;20070;-54
2023/05/21 02:57:08;;;;;;;19.77;10.90;;;13.90;99.90;;;;;;5111534;28;20051;-54
2023/05/21 02:59:34;;;;;;;19.90;10.77;;;14.00;99.90;;;;;;5105552;28;20110;-50
2023/05/21 03:01:59;;;;;;;16.58;9.60;;;13.90;99.90;;;;;;5106510;28;20072;-57
2023/05/21 03:04:27;;;;;;;21.33;10.45;;;14.00;99.90;;;;;;5106679;28;20068;-54
2023/05/21 03:06:54;;;;;;;21.42;10.57;;;14.00;99.90;;;;;;5110358;28;20114;-55
2023/05/21 03:09:22;;;;;;;17.75;10.55;;;14.00;99.90;;;;;;5105843;28;20019;-52
2023/05/21 03:11:50;;;;;;;24.58;11.05;;;14.00;99.90;;;;;;5105427;28;20035;-56
2023/05/21 03:14:16;;;;;;;20.77;10.20;;;14.00;99.90;;;;;;5111308;28;20028;-57
2023/05/21 03:16:42;;;;;;;19.65;10.55;;;14.00;99.90;;;;;;5108632;28;20032;-55
2023/05/21 03:19:10;;;;;;;20.20;10.10;;;14.00;99.90;;;;;;5108042;27;20073;-54
2023/05/21 03:21:36;;;;;;;18.75;10.80;;;14.00;99.90;;;;;;5105767;28;20023;-51
2023/05/21 03:24:03;;;;;;;19.83;10.18;;;14.00;99.90;;;;;;5108179;28;20529;-57
2023/05/21 03:26:29;;;;;;;25.20;11.10;;;13.90;99.90;;;;;;5109563;28;20030;-55
2023/05/21 03:28:55;;;;;;;20.38;10.25;;;13.90;99.90;;;;;;5107850;28;20449;-56
2023/05/21 03:31:22;;;;;;;18.25;10.13;;;13.90;99.90;;;;;;5108078;28;20019;-55
2023/05/21 03:33:47;;;;;;;20.63;10.13;;;13.90;99.90;;;;;;5106028;28;20053;-57
2023/05/21 03:36:13;;;;;;;20.77;9.98;;;13.90;99.90;;;;;;5108110;28;20036;-54
2023/05/21 03:38:38;;;;;;;18.23;10.60;;;13.90;99.90;;;;;;5106488;27;20031;-57
2023/05/21 03:41:04;;;;;;;21.20;9.90;;;13.90;99.90;;;;;;5110785;28;20572;-53
2023/05/21 03:43:30;;;;;;;20.05;9.90;;;13.90;99.90;;;;;;5105303;28;20405;-55
2023/05/21 03:45:55;;;;;;;25.92;10.07;;;13.90;99.90;;;;;;5108493;28;20045;-59
2023/05/21 03:48:21;;;;;;;25.85;11.90;;;13.90;99.90;;;;;;5106647;28;20057;-56
2023/05/21 03:50:47;;;;;;;17.98;10.07;;;13.90;99.90;;;;;;5109909;28;20051;-55
2023/05/21 03:53:12;;;;;;;21.63;10.00;;;13.90;99.90;;;;;;5107873;28;20027;-57
2023/05/21 03:55:38;;;;;;;19.35;10.25;;;13.90;99.90;;;;;;5108204;28;20024;-56
2023/05/21 03:58:04;;;;;;;18.92;10.45;;;13.90;99.90;;;;;;5108259;28;20417;-56
2023/05/21 04:00:31;;;;;;;20.92;10.70;;;13.90;99.90;;;;;;5105999;28;20023;-51
2023/05/21 04:02:57;;;;;;;17.88;10.57;;;13.90;99.90;;;;;;5107737;28;20485;-55
2023/05/21 04:05:23;;;;;;;19.17;10.90;;;13.90;99.90;;;;;;5105451;28;20110;-57
2023/05/21 04:07:48;;;;;;;17.23;10.30;;;13.80;99.90;;;;;;5105717;28;20416;-56
2023/05/21 04:10:14;;;;;;;19.95;10.43;;;13.80;99.90;;;;;;5106772;28;20016;-54
2023/05/21 04:12:40;;;;;;;18.20;10.68;;;13.80;99.90;;;;;;5110738;28;20042;-54
2023/05/21 04:15:06;;;;;;;17.35;10.35;;;13.80;99.90;;;;;;5108312;28;20540;-57
2023/05/21 04:17:33;;;;;;;19.20;11.18;;;13.80;99.90;;;;;;5111149;28;20096;-56
2023/05/21 04:19:59;;;;;;;18.38;10.82;;;13.80;99.90;;;;;;5106890;28;20025;-51
2023/05/21 04:22:25;;;;;;;17.70;9.95;;;13.80;99.90;;;;;;5107568;28;20094;-54
2023/05/21 04:24:53;;;;;;;22.02;11.00;;;13.80;99.90;;;;;;5110584;28;20031;-52
2023/05/21 04:27:22;;;;;;;19.30;11.27;;;13.80;99.90;;;;;;5107909;28;20023;-52
2023/05/21 04:29:48;;;;;;;22.35;11.10;;;13.80;99.90;;;;;;5103044;28;20024;-57
2023/05/21 04:32:16;;;;;;;17.67;11.05;;;13.80;99.90;;;;;;5108536;28;20020;-54
2023/05/21 04:34:42;;;;;;;16.65;10.02;;;13.80;99.90;;;;;;5105669;28;20011;-56
2023/05/21 04:37:08;;;;;;;19.02;9.85;;;13.80;99.90;;;;;;5104415;28;20020;-55
2023/05/21 04:39:33;;;;;;;21.33;10.88;;;13.80;99.90;;;;;;5106438;28;20032;-55
2023/05/21 04:42:00;;;;;;;20.10;9.98;;;13.80;99.90;;;;;;5108658;28;20093;-57
2023/05/21 04:44:26;;;;;;;15.75;9.63;;;13.80;99.90;;;;;;5102975;28;20077;-51
2023/05/21 04:46:53;;;;;;;21.38;9.85;;;13.80;99.90;;;;;;5107563;28;20428;-57
2023/05/21 04:49:20;;;;;;;17.42;9.50;;;13.80;99.90;;;;;;5106284;28;20016;-52
2023/05/21 04:51:45;;;;;;;20.60;10.07;;;13.80;99.90;;;;;;5107418;28;20547;-54
2023/05/21 04:54:11;;;;;;;13.30;9.15;;;13.80;99.90;;;;;;5104591;28;20023;-57
2023/05/21 04:56:37;;;;;;;17.73;11.30;;;13.80;99.90;;;;;;5103612;28;20024;-53
2023/05/21 04:59:02;;;;;;;17.67;9.98;;;13.80;99.90;;;;;;5107676;28;20039;-54
2023/05/21 05:01:31;;;;;;;22.63;9.88;;;13.80;99.90;;;;;;5106556;28;20055;-54
2023/05/21 05:03:56;;;;;;;15.20;9.57;;;13.80;99.90;;;;;;5109871;28;20115;-55
2023/05/21 05:06:24;;;;;;;17.25;9.73;;;13.80;99.90;;;;;;5106390;28;20545;-54
2023/05/21 05:08:50;;;;;;;15.23;9.77;;;13.80;99.90;;;;;;5103678;28;20016;-51
2023/05/21 05:11:16;;;;;;;20.30;11.60;;;13.80;99.90;;;;;;5106627;28;20030;-57
2023/05/21 05:13:41;;;;;;;19.17;10.93;;;13.80;99.90;;;;;;5102136;28;20103;-55
2023/05/21 05:16:08;;;;;;;21.35;10.68;;;13.90;99.90;;;;;;5107732;28;20536;-59
2023/05/21 05:18:34;;;;;;;18.35;10.90;;;13.90;99.90;;;;;;5104590;28;20031;-57
2023/05/21 05:21:00;;;;;;;18.38;9.98;;;13.90;99.90;;;;;;5104482;28;20020;-59
2023/05/21 05:23:25;;;;;;;18.95;10.52;;;13.90;99.90;;;;;;5102886;28;20031;-57
2023/05/21 05:25:51;;;;;;;21.50;10.77;;;13.90;99.90;;;;;;5107074;28;20397;-56
2023/05/21 05:28:17;;;;;;;19.25;10.75;;;13.90;99.90;;;;;;5104006;28;20028;-52
2023/05/21 05:30:42;;;;;;;24.25;11.23;;;13.90;99.90;;;;;;5103898;28;20038;-51
2023/05/21 05:33:08;;;;;;;23.10;10.30;;;13.90;99.90;;;;;;5106719;28;20434;-57
2023/05/21 05:35:33;;;;;;;20.63;11.07;;;13.90;99.90;;;;;;5100763;28;20031;-55
2023/05/21 05:37:59;;;;;;;18.90;9.80;;;13.90;99.90;;;;;;5103955;28;20126;-53
2023/05/21 05:40:25;;;;;;;16.00;10.60;;;14.00;99.90;;;;;;5106972;28;20397;-59
2023/05/21 05:42:51;;;;;;;15.55;10.35;;;14.00;99.90;;;;;;5107969;28;20039;-52
2023/05/21 05:45:17;;;;;;;18.15;10.57;;;14.00;99.90;;;;;;5108630;28;20027;-59
2023/05/21 05:47:43;;;;;;;19.05;10.77;;;14.10;99.90;;;;;;5108180;28;20031;-58
2023/05/21 05:50:09;;;;;;;19.20;10.25;;;14.10;99.90;;;;;;5108012;28;20023;-51
2023/05/21 05:52:34;;;;;;;21.42;10.98;;;14.10;99.90;;;;;;5104966;28;20024;-53
2023/05/21 05:55:00;;;;;;;19.55;10.00;;;14.20;99.90;;;;;;5107445;28;20439;-53
2023/05/21 05:57:25;;;;;;;17.95;10.25;;;14.20;99.90;;;;;;5107540;28;20452;-56
2023/05/21 05:59:51;;;;;;;18.02;10.18;;;14.20;99.90;;;;;;5105447;28;20565;-55
2023/05/21 06:02:16;;;;;;;19.15;10.88;;;14.30;99.90;;;;;;5105298;28;20395;-55
2023/05/21 06:04:42;;;;;;;20.15;10.55;;;14.30;99.90;;;;;;5106376;28;20072;-57
2023/05/21 06:07:08;;;;;;;19.77;10.32;;;14.30;99.90;;;;;;5109344;28;20497;-54
2023/05/21 06:09:33;;;;;;;20.25;11.18;;;14.30;99.90;;;;;;5106091;28;20477;-56
2023/05/21 06:11:59;;;;;;;23.30;10.48;;;14.30;99.90;;;;;;5110485;28;20052;-56
2023/05/21 06:14:25;;;;;;;17.80;10.05;;;14.30;99.90;;;;;;5106861;28;20055;-57
2023/05/21 06:16:50;;;;;;;18.77;10.80;;;14.40;99.90;;;;;;5106629;28;20468;-59
2023/05/21 06:19:16;;;;;;;19.58;10.25;;;14.50;99.90;;;;;;5109528;28;20164;-53
2023/05/21 06:21:41;;;;;;;21.65;11.00;;;14.50;99.90;;;;;;5107168;28;20035;-53
2023/05/21 06:24:07;;;;;;;18.85;10.25;;;14.60;99.90;;;;;;5110093;28;20436;-56
2023/05/21 06:26:33;;;;;;;21.73;10.77;;;14.70;99.90;;;;;;5111807;28;20377;-56
2023/05/21 06:28:58;;;;;;;23.98;10.70;;;14.70;99.90;;;;;;5110835;28;20035;-50
2023/05/21 06:31:24;;;;;;;19.33;10.82;;;14.80;99.90;;;;;;5108829;28;20028;-55
2023/05/21 06:33:49;;;;;;;22.80;11.43;;;14.90;99.90;;;;;;5109803;28;20027;-54
2023/05/21 06:36:15;;;;;;;23.50;10.85;;;14.90;99.90;;;;;;5108907;28;20057;-53
2023/05/21 06:38:41;;;;;;;20.98;11.75;;;15.00;99.90;;;;;;5106676;28;20043;-58
2023/05/21 06:41:07;;;;;;;28.05;11.35;;;15.00;99.90;;;;;;5105430;28;20023;-56
2023/05/21 06:43:32;;;;;;;15.50;10.30;;;15.00;99.90;;;;;;5106849;28;20404;-53
2023/05/21 06:45:58;;;;;;;18.58;11.00;;;15.10;99.90;;;;;;5111084;28;20110;-57
2023/05/21 06:48:23;;;;;;;20.92;12.55;;;15.10;99.90;;;;;;5106980;28;20637;-57
2023/05/21 06:50:49;;;;;;;25.50;12.07;;;15.10;99.90;;;;;;5105280;28;20063;-53
2023/05/21 06:53:15;;;;;;;21.42;12.07;;;15.10;99.90;;;;;;5109811;28;20102;-54
2023/05/21 06:55:43;;;;;;;19.92;11.63;;;15.10;99.90;;;;;;5112823;28;20031;-56
2023/05/21 06:58:10;;;;;;;20.35;11.27;;;15.20;99.90;;;;;;5108321;28;20015;-58
2023/05/21 07:00:35;;;;;;;18.38;10.85;;;15.30;99.90;;;;;;5107676;28;20027;-57
2023/05/21 07:03:01;;;;;;;21.73;11.45;;;15.30;99.90;;;;;;5109285;28;20035;-56
2023/05/21 07:05:26;;;;;;;22.77;11.15;;;15.40;99.90;;;;;;5108230;28;20067;-53
2023/05/21 07:07:52;;;;;;;20.77;10.77;;;15.50;99.90;;;;;;5105628;28;20027;-58
2023/05/21 07:10:18;;;;;;;19.58;11.20;;;15.70;99.90;;;;;;5108309;28;20036;-57
2023/05/21 07:12:44;;;;;;;19.48;11.65;;;15.70;99.90;;;;;;5112765;28;20153;-57
2023/05/21 07:15:10;;;;;;;18.05;11.00;;;15.70;99.90;;;;;;5110636;28;20540;-56
2023/05/21 07:17:36;;;;;;;18.42;10.98;;;15.80;99.90;;;;;;5105698;28;20145;-56
2023/05/21 07:20:04;;;;;;;18.25;11.35;;;15.90;99.90;;;;;;5111606;28;20035;-57
2023/05/21 07:22:29;;;;;;;19.48;11.68;;;16.00;99.90;;;;;;5109341;28;20039;-55
2023/05/21 07:24:55;;;;;;;21.15;12.60;;;16.10;99.90;;;;;;5107069;28;20031;-57
2023/05/21 07:27:20;;;;;;;25.17;11.40;;;16.20;99.90;;;;;;5106037;28;20127;-57
2023/05/21 07:29:46;;;;;;;19.10;11.07;;;16.30;99.90;;;;;;5106912;27;20024;-55
2023/05/21 07:32:11;;;;;;;18.45;10.85;;;16.30;99.90;;;;;;5108460;27;20040;-54
2023/05/21 07:34:37;;;;;;;21.05;11.23;;;16.40;99.90;;;;;;5109202;28;20549;-54
2023/05/21 07:37:03;;;;;;;21.20;11.25;;;16.50;99.90;;;;;;5106474;28;20039;-56
2023/05/21 07:39:28;;;;;;;19.75;11.50;;;16.60;99.90;;;;;;5109242;28;20048;-56
2023/05/21 07:41:54;;;;;;;20.27;11.93;;;16.70;99.90;;;;;;5112379;28;20103;-57
2023/05/21 07:44:19;;;;;;;19.23;11.10;;;16.60;99.90;;;;;;5112675;28;20489;-56
2023/05/21 07:46:45;;;;;;;22.85;12.60;;;16.60;99.90;;;;;;5106191;28;20081;-57
2023/05/21 07:49:15;;;;;;;20.33;11.07;;;16.60;99.90;;;;;;5103239;28;20027;-55
2023/05/21 07:51:41;;;;;;;16.33;10.75;;;16.60;99.90;;;;;;5108111;28;20028;-53
2023/05/21 07:54:07;;;;;;;17.10;11.40;;;16.60;99.90;;;;;;5108341;28;20043;-53
2023/05/21 07:56:32;;;;;;;17.20;11.88;;;16.70;99.90;;;;;;5106595;28;20070;-56
2023/05/21 07:58:58;;;;;;;17.33;10.57;;;16.70;99.90;;;;;;5103401;28;20063;-56
2023/05/21 08:01:23;;;;;;;19.23;11.55;;;16.70;99.90;;;;;;5105356;27;20039;-55
2023/05/21 08:03:49;;;;;;;22.67;12.85;;;16.70;99.90;;;;;;5103526;28;20032;-56
2023/05/21 08:06:14;;;;;;;20.33;11.95;;;16.70;99.90;;;;;;5102950;28;20031;-56
2023/05/21 08:08:40;;;;;;;20.17;12.18;;;16.50;99.90;;;;;;5104425;28;20397;-52
2023/05/21 08:11:05;;;;;;;22.85;11.77;;;16.60;99.90;;;;;;5108960;28;20038;-53
2023/05/21 08:13:31;;;;;;;21.92;11.73;;;16.70;99.90;;;;;;5107750;28;20106;-51
2023/05/21 08:15:56;;;;;;;17.58;11.05;;;16.80;99.90;;;;;;5101780;28;20024;-50
2023/05/21 08:18:24;;;;;;;25.80;11.95;;;16.80;99.90;;;;;;5108673;28;20406;-51
2023/05/21 08:20:50;;;;;;;19.48;11.20;;;17.00;99.90;;;;;;5109483;28;20334;-53
2023/05/21 08:23:16;;;;;;;21.35;13.00;;;17.00;99.90;;;;;;5104511;28;20116;-53
2023/05/21 08:25:41;;;;;;;20.20;11.80;;;17.00;99.90;;;;;;5108674;28;20126;-54
2023/05/21 08:28:07;;;;;;;22.05;11.70;;;17.10;99.90;;;;;;5099708;28;20034;-49
2023/05/21 08:30:32;;;;;;;17.55;10.85;;;17.10;99.90;;;;;;5098583;28;20065;-53
2023/05/21 08:32:58;;;;;;;24.23;12.25;;;17.10;99.90;;;;;;5106162;28;20030;-52
2023/05/21 08:35:24;;;;;;;20.15;11.32;;;17.30;99.90;;;;;;5108912;28;20122;-50
2023/05/21 08:37:49;;;;;;;18.80;11.18;;;17.30;99.90;;;;;;5102311;28;20039;-53
2023/05/21 08:40:15;;;;;;;23.00;12.75;;;17.30;99.90;;;;;;5096122;28;20027;-51
2023/05/21 08:42:48;;;;;;;21.52;12.32;;;17.30;99.90;;;;;;5097466;28;20102;-50
2023/05/21 08:45:19;;;;;;;25.02;13.48;;;17.40;99.90;;;;;;5102008;28;20030;-53
2023/05/21 08:47:45;;;;;;;18.02;12.13;;;17.50;99.90;;;;;;5104005;28;20032;-53
2023/05/21 08:50:17;;;;;;;25.30;12.82;;;17.60;99.90;;;;;;5101762;28;20109;-50
2023/05/21 08:52:42;;;;;;;23.25;13.05;;;17.70;99.90;;;;;;5102132;28;20111;-52
2023/05/21 08:55:09;;;;;;;20.33;12.30;;;17.70;99.90;;;;;;5106890;28;21518;-55
2023/05/21 08:57:35;;;;;;;21.55;12.95;;;17.90;99.90;;;;;;5102540;28;20016;-50
2023/05/21 09:00:03;;;;;;;22.10;13.73;;;17.90;99.90;;;;;;5102698;28;20504;-50
2023/05/21 09:02:33;;;;;;;23.83;14.60;;;17.90;99.90;;;;;;5101220;28;20065;-54
2023/05/21 09:05:01;;;;;;;23.50;12.30;;;17.90;99.90;;;;;;5100542;28;20046;-53
2023/05/21 09:07:29;;;;;;;19.50;13.50;;;18.00;99.90;;;;;;5106229;28;20528;-51
2023/05/21 09:10:06;;;;;;;24.83;14.50;;;18.10;99.90;;;;;;5103623;28;20116;-53
2023/05/21 09:12:33;;;;;;;23.83;13.90;;;18.10;99.90;;;;;;5099490;28;20076;-52
2023/05/21 09:15:00;;;;;;;22.25;13.60;;;18.20;99.90;;;;;;5108910;28;20031;-55
2023/05/21 09:17:25;;;;;;;21.00;11.45;;;18.20;99.90;;;;;;5106010;28;20032;-53
2023/05/21 09:20:15;;;;;;;22.88;13.07;;;18.40;99.90;;;;;;5104184;28;20084;-54
2023/05/21 09:22:43;;;;;;;22.05;13.20;;;18.50;99.90;;;;;;5105465;28;20031;-52
2023/05/21 09:25:13;;;;;;;25.27;14.10;;;18.50;99.90;;;;;;5104633;28;20039;-54
2023/05/21 09:27:39;;;;;;;22.63;13.95;;;18.60;99.90;;;;;;5107766;28;20024;-54
2023/05/21 09:30:09;;;;;;;25.60;13.98;;;18.60;99.90;;;;;;5102809;28;20024;-50
2023/05/21 09:32:35;;;;;;;22.90;14.80;;;18.70;99.90;;;;;;5104477;28;20039;-50
2023/05/21 09:35:08;;;;;;;22.98;13.75;;;18.80;99.90;;;;;;5104624;28;20027;-50
2023/05/21 09:37:44;;;;;;;22.55;14.48;;;19.00;99.90;;;;;;5105322;28;20035;-55
2023/05/21 09:40:15;;;;;;;24.02;13.95;;;19.30;99.90;;;;;;5104442;28;20089;-51
2023/05/21 09:42:51;;;;;;;23.58;14.38;;;19.50;99.90;;;;;;5101830;28;20073;-56
2023/05/21 09:45:22;;;;;;;22.20;13.95;;;19.50;99.90;;;;;;5104863;28;20043;-54
2023/05/21 09:47:48;;;;;;;24.52;13.60;;;19.60;99.90;;;;;;5105500;28;20039;-51
2023/05/21 09:50:19;;;;;;;20.27;12.95;;;19.70;99.90;;;;;;5103503;28;20028;-49
2023/05/21 09:52:44;;;;;;;22.27;13.30;;;19.80;99.90;;;;;;5103688;28;20052;-54
2023/05/21 09:55:11;;;;;;;21.15;13.77;;;19.90;99.90;;;;;;5107422;28;20516;-54
2023/05/21 09:57:44;;;;;;;21.60;13.23;;;19.90;99.90;;;;;;5102343;28;20035;-53
2023/05/21 10:00:20;;;;;;;21.65;13.00;;;19.90;99.90;;;;;;5100961;28;20024;-51
2023/05/21 10:02:46;;;;;;;23.75;13.35;;;19.90;99.90;;;;;;5100402;28;20027;-54
2023/05/21 10:05:14;;;;;;;25.38;13.05;;;20.00;99.90;;;;;;5104434;28;20024;-54
2023/05/21 10:07:51;;;;;;;21.70;13.82;;;20.20;99.90;;;;;;5099978;28;20027;-50
2023/05/21 10:10:20;;;;;;;22.52;13.50;;;20.30;99.90;;;;;;5105471;28;20366;-51
2023/05/21 10:12:50;;;;;;;22.90;13.68;;;20.20;99.90;;;;;;5103389;28;20427;-53
2023/05/21 10:15:20;;;;;;;19.42;11.18;;;20.20;99.90;;;;;;5106837;28;20082;-53
2023/05/21 10:17:48;;;;;;;23.75;12.25;;;20.40;99.90;;;;;;5104293;28;20695;-51
2023/05/21 10:20:13;;;;;;;19.05;11.85;;;20.60;99.90;;;;;;5112104;28;20023;-51
2023/05/21 10:22:40;;;;;;;17.70;11.77;;;20.60;99.90;;;;;;5110823;28;20039;-51
2023/05/21 10:25:07;;;;;;;18.65;11.82;;;20.60;99.90;;;;;;5111537;28;20509;-52
2023/05/21 10:27:34;;;;;;;19.00;11.35;;;20.80;99.90;;;;;;5109497;28;20033;-53
2023/05/21 10:30:01;;;;;;;20.05;12.68;;;21.00;99.90;;;;;;5105466;28;20076;-52
2023/05/21 10:32:27;;;;;;;26.08;13.90;;;21.00;99.90;;;;;;5100814;28;20182;-54
2023/05/21 10:34:53;;;;;;;19.33;10.57;;;21.00;99.90;;;;;;5106654;28;20020;-53
2023/05/21 10:37:23;;;;;;;18.27;11.43;;;21.10;99.90;;;;;;5107881;28;20035;-52
2023/05/21 10:39:49;;;;;;;21.42;11.23;;;21.30;99.90;;;;;;5109406;28;20789;-51
2023/05/21 10:42:26;;;;;;;19.50;11.95;;;21.20;99.90;;;;;;5111932;28;20027;-53
2023/05/21 10:45:23;;;;;;;17.77;11.10;;;21.10;99.90;;;;;;5110419;28;20392;-53
2023/05/21 10:48:22;;;;;;;16.55;11.45;;;21.40;99.90;;;;;;5105767;28;20030;-52
2023/05/21 10:50:54;;;;;;;20.50;11.82;;;21.60;99.90;;;;;;5110602;28;20050;-51
2023/05/21 10:53:31;;;;;;;18.52;12.55;;;21.90;99.90;;;;;;5111732;28;20025;-54
2023/05/21 10:56:38;;;;;;;19.50;12.60;;;21.90;99.90;;;;;;5106614;28;20030;-49
2023/05/21 10:59:27;;;;;;;19.10;11.93;;;22.00;99.90;;;;;;5112739;28;20435;-51
2023/05/21 11:01:54;;;;;;;24.25;11.57;;;22.30;99.90;;;;;;5107673;28;20052;-50
2023/05/21 11:04:25;;;;;;;19.63;12.02;;;22.50;99.90;;;;;;5109809;28;20024;-50
2023/05/21 11:06:51;;;;;;;18.55;12.38;;;22.40;99.90;;;;;;5107518;28;20024;-53
2023/05/21 11:09:17;;;;;;;17.25;10.68;;;22.50;99.90;;;;;;5111733;28;20471;-50
2023/05/21 11:11:56;;;;;;;25.60;12.57;;;22.70;99.90;;;;;;5110626;28;20027;-50
2023/05/21 11:14:31;;;;;;;23.67;12.95;;;22.80;99.90;;;;;;5108055;28;20019;-52
2023/05/21 11:16:58;;;;;;;20.15;11.50;;;23.10;99.90;;;;;;5107833;28;20023;-50
2023/05/21 11:19:53;;;;;;;20.48;12.38;;;23.60;99.90;;;;;;5108560;28;20030;-51
2023/05/21 11:22:20;;;;;;;;;;;23.80;99.90;;;;;;5104543;27;20020;-52
2023/05/21 11:24:45;;;;;;;21.70;12.70;;;23.80;99.90;;;;;;5107930;28;21368;-51
2023/05/21 11:27:11;;;;;;;15.68;11.07;;;23.60;99.90;;;;;;5104728;28;20067;-51
2023/05/21 11:29:43;;;;;;;15.95;11.60;;;23.20;99.90;;;;;;5102929;28;20102;-53
2023/05/21 11:32:10;;;;;;;20.50;12.13;;;23.20;99.90;;;;;;5104689;28;20016;-49
2023/05/21 11:34:38;;;;;;;19.85;13.38;;;23.30;99.90;;;;;;5102601;28;20039;-50
2023/05/21 11:37:39;;;;;;;20.10;13.27;;;23.30;99.90;;;;;;5110859;28;20023;-51
2023/05/21 11:40:31;;;;;;;18.15;11.60;;;23.30;99.90;;;;;;5105784;28;20047;-51
2023/05/21 11:42:56;;;;;;;;;;;23.60;99.90;;;;;;5091747;28;20043;-56
2023/05/21 11:45:27;;;;;;;22.02;13.65;;;23.60;99.90;;;;;;5103476;28;20037;-53
2023/05/21 11:47:54;;;;;;;18.98;13.20;;;23.50;99.90;;;;;;5104131;28;20023;-54
2023/05/21 11:50:20;;;;;;;19.75;12.48;;;23.40;99.90;;;;;;5108039;28;20094;-51
2023/05/21 11:52:46;;;;;;;18.60;12.32;;;23.50;99.90;;;;;;5106111;28;20102;-53
2023/05/21 11:55:14;;;;;;;17.85;12.05;;;23.60;99.90;;;;;;5106683;28;20058;-50
2023/05/21 11:57:43;;;;;;;19.02;12.38;;;23.80;99.90;;;;;;5099758;28;20728;-50
2023/05/21 12:00:14;;;;;;;21.92;12.15;;;24.00;99.90;;;;;;5105513;28;20077;-52
2023/05/21 12:03:07;;;;;;;15.80;10.57;;;24.30;99.90;;;;;;5107091;28;20574;-50
2023/05/21 12:05:48;;;;;;;19.73;12.38;;;24.50;99.90;;;;;;5104736;28;20043;-52
2023/05/21 12:08:24;;;;;;;18.05;11.35;;;24.90;99.90;;;;;;5111839;28;20090;-50
2023/05/21 12:10:57;;;;;;;17.50;12.20;;;25.20;99.90;;;;;;5105504;28;20028;-50
2023/05/21 12:13:24;;;;;;;20.65;10.82;;;25.00;99.90;;;;;;5105854;28;20020;-50
2023/05/21 12:15:52;;;;;;;21.48;11.65;;;25.10;99.90;;;;;;5108451;28;20027;-50
2023/05/21 12:18:18;;;;;;;18.55;11.98;;;25.20;99.90;;;;;;5108350;28;20024;-51
2023/05/21 12:20:43;;;;;;;17.88;12.35;;;25.20;99.90;;;;;;5102608;28;20039;-51
2023/05/21 12:23:27;;;;;;;17.60;11.48;;;25.40;99.90;;;;;;5108363;28;20076;-54
2023/05/21 12:25:52;;;;;;;17.45;12.18;;;25.30;99.90;;;;;;5108446;28;20023;-57
2023/05/21 12:28:20;;;;;;;25.38;12.07;;;25.30;99.90;;;;;;5109157;28;20024;-57
2023/05/21 12:30:46;;;;;;;23.65;11.65;;;25.20;99.90;;;;;;5104601;28;20027;-58